Terminal Aerodrome Forecast
Issued by NWS

Home | Current Version | Previous Version | Graphics & Text | Print | Product List | Glossary On
Versions: 1 2 3 4 5 6 7 8 9 10 11 12 13 14 15 16 17 18 19 20 21 22 23 24
000
FTUS43 KBIS 280200 AAB
TAFJMS
TAF AMD
KJMS 280207Z 2802/2824 14006KT 2SM BR BKN005 BKN150
      TEMPO 2802/2806 1/2SM FG VV002
     FM281500 33012KT P6SM BKN100
     FM282000 33021G30KT P6SM BKN015=

USA.gov is the U.S. government's official web portal to all federal, state and local government web resources and services.